sensor_id;sensor_type;location;lat;lon;timestamp;temperature;humidity
37086;DHT22;23001;45.952;12.676;2023-05-07T00:00:15;18.00;99.90
37086;DHT22;23001;45.952;12.676;2023-05-07T00:02:43;17.90;99.90
37086;DHT22;23001;45.952;12.676;2023-05-07T00:05:09;18.00;99.90
37086;DHT22;23001;45.952;12.676;2023-05-07T00:07:35;17.90;99.90
37086;DHT22;23001;45.952;12.676;2023-05-07T00:10:06;17.80;99.90
37086;DHT22;23001;45.952;12.676;2023-05-07T00:12:35;17.70;99.90
37086;DHT22;23001;45.952;12.676;2023-05-07T00:15:01;17.80;99.90
37086;DHT22;23001;45.952;12.676;2023-05-07T00:17:30;17.90;99.90
37086;DHT22;23001;45.952;12.676;2023-05-07T00:19:58;18.00;99.90
37086;DHT22;23001;45.952;12.676;2023-05-07T00:22:26;18.00;99.90
37086;DHT22;23001;45.952;12.676;2023-05-07T00:24:52;17.70;99.90
37086;DHT22;23001;45.952;12.676;2023-05-07T00:27:17;17.70;99.90
37086;DHT22;23001;45.952;12.676;2023-05-07T00:29:46;17.60;99.90
37086;DHT22;23001;45.952;12.676;2023-05-07T00:32:14;17.60;99.90
37086;DHT22;23001;45.952;12.676;2023-05-07T00:34:40;17.60;99.90
37086;DHT22;23001;45.952;12.676;2023-05-07T00:37:05;17.60;99.90
37086;DHT22;23001;45.952;12.676;2023-05-07T00:39:33;17.50;99.90
37086;DHT22;23001;45.952;12.676;2023-05-07T00:41:58;17.40;99.90
37086;DHT22;23001;45.952;12.676;2023-05-07T00:44:27;17.30;99.90
37086;DHT22;23001;45.952;12.676;2023-05-07T00:46:56;17.50;99.90
37086;DHT22;23001;45.952;12.676;2023-05-07T00:49:24;17.50;99.90
37086;DHT22;23001;45.952;12.676;2023-05-07T00:51:52;17.50;99.90
37086;DHT22;23001;45.952;12.676;2023-05-07T00:54:18;17.50;99.90
37086;DHT22;23001;45.952;12.676;2023-05-07T00:56:44;17.60;99.90
37086;DHT22;23001;45.952;12.676;2023-05-07T00:59:10;17.60;99.90
37086;DHT22;23001;45.952;12.676;2023-05-07T01:01:38;17.50;99.90
37086;DHT22;23001;45.952;12.676;2023-05-07T01:04:04;17.50;99.90
37086;DHT22;23001;45.952;12.676;2023-05-07T01:06:30;17.30;99.90
37086;DHT22;23001;45.952;12.676;2023-05-07T01:08:57;17.30;99.90
37086;DHT22;23001;45.952;12.676;2023-05-07T01:11:23;17.20;99.90
37086;DHT22;23001;45.952;12.676;2023-05-07T01:13:51;17.10;99.90
37086;DHT22;23001;45.952;12.676;2023-05-07T01:16:17;17.10;99.90
37086;DHT22;23001;45.952;12.676;2023-05-07T01:19:03;17.20;99.90
37086;DHT22;23001;45.952;12.676;2023-05-07T01:24:09;17.10;99.90
37086;DHT22;23001;45.952;12.676;2023-05-07T01:26:35;17.10;99.90
37086;DHT22;23001;45.952;12.676;2023-05-07T01:32:45;17.00;99.90
37086;DHT22;23001;45.952;12.676;2023-05-07T01:47:58;16.80;99.90
37086;DHT22;23001;45.952;12.676;2023-05-07T02:09:45;16.80;99.90
37086;DHT22;23001;45.952;12.676;2023-05-07T03:03:12;16.40;99.90
37086;DHT22;23001;45.952;12.676;2023-05-07T03:09:31;16.30;99.90
37086;DHT22;23001;45.952;12.676;2023-05-07T04:36:45;15.90;99.90
37086;DHT22;23001;45.952;12.676;2023-05-07T05:54:22;18.40;99.90
37086;DHT22;23001;45.952;12.676;2023-05-07T05:57:06;18.80;99.90
37086;DHT22;23001;45.952;12.676;2023-05-07T10:20:55;25.20;97.50
37086;DHT22;23001;45.952;12.676;2023-05-07T10:23:32;25.00;98.10
37086;DHT22;23001;45.952;12.676;2023-05-07T10:25:58;24.80;97.90
37086;DHT22;23001;45.952;12.676;2023-05-07T10:28:30;24.70;97.80
37086;DHT22;23001;45.952;12.676;2023-05-07T10:31:15;24.60;98.40
37086;DHT22;23001;45.952;12.676;2023-05-07T10:33:44;24.60;98.00
37086;DHT22;23001;45.952;12.676;2023-05-07T10:36:11;24.50;98.20
37086;DHT22;23001;45.952;12.676;2023-05-07T10:38:37;24.60;98.00
37086;DHT22;23001;45.952;12.676;2023-05-07T11:07:55;24.10;98.70
37086;DHT22;23001;45.952;12.676;2023-05-07T11:22:36;25.20;98.30
37086;DHT22;23001;45.952;12.676;2023-05-07T11:31:25;25.40;98.00
37086;DHT22;23001;45.952;12.676;2023-05-07T11:33:54;25.40;97.90
37086;DHT22;23001;45.952;12.676;2023-05-07T11:36:41;25.40;97.70
37086;DHT22;23001;45.952;12.676;2023-05-07T11:39:22;25.50;97.50
37086;DHT22;23001;45.952;12.676;2023-05-07T11:41:54;25.70;97.80
37086;DHT22;23001;45.952;12.676;2023-05-07T11:44:20;25.70;97.40
37086;DHT22;23001;45.952;12.676;2023-05-07T11:46:45;25.70;97.80
37086;DHT22;23001;45.952;12.676;2023-05-07T11:49:14;25.80;98.20
37086;DHT22;23001;45.952;12.676;2023-05-07T11:51:39;26.00;97.50
37086;DHT22;23001;45.952;12.676;2023-05-07T11:54:08;26.00;98.20
37086;DHT22;23001;45.952;12.676;2023-05-07T11:56:45;26.10;98.00
37086;DHT22;23001;45.952;12.676;2023-05-07T11:59:11;26.00;98.10
37086;DHT22;23001;45.952;12.676;2023-05-07T12:01:40;26.10;98.00
37086;DHT22;23001;45.952;12.676;2023-05-07T12:04:05;26.10;98.20
37086;DHT22;23001;45.952;12.676;2023-05-07T12:09:25;25.90;98.30
37086;DHT22;23001;45.952;12.676;2023-05-07T12:11:51;26.00;98.00
37086;DHT22;23001;45.952;12.676;2023-05-07T12:14:17;26.10;98.10
37086;DHT22;23001;45.952;12.676;2023-05-07T12:16:43;26.10;98.00
37086;DHT22;23001;45.952;12.676;2023-05-07T12:19:09;26.00;98.40
37086;DHT22;23001;45.952;12.676;2023-05-07T12:21:46;25.90;98.40
37086;DHT22;23001;45.952;12.676;2023-05-07T12:24:21;25.80;98.50
37086;DHT22;23001;45.952;12.676;2023-05-07T12:26:47;25.60;98.30
37086;DHT22;23001;45.952;12.676;2023-05-07T12:29:22;25.50;98.50
37086;DHT22;23001;45.952;12.676;2023-05-07T12:31:58;25.40;98.00
37086;DHT22;23001;45.952;12.676;2023-05-07T12:34:27;25.50;97.80
37086;DHT22;23001;45.952;12.676;2023-05-07T12:37:02;25.60;97.80
37086;DHT22;23001;45.952;12.676;2023-05-07T12:39:31;25.50;98.00
37086;DHT22;23001;45.952;12.676;2023-05-07T12:45:21;25.70;97.70
37086;DHT22;23001;45.952;12.676;2023-05-07T12:47:50;25.70;97.00
37086;DHT22;23001;45.952;12.676;2023-05-07T12:50:16;25.50;97.50
37086;DHT22;23001;45.952;12.676;2023-05-07T12:52:51;25.50;97.30
37086;DHT22;23001;45.952;12.676;2023-05-07T12:55:20;25.40;97.10
37086;DHT22;23001;45.952;12.676;2023-05-07T12:57:52;25.30;96.80
37086;DHT22;23001;45.952;12.676;2023-05-07T13:03:38;25.20;97.10
37086;DHT22;23001;45.952;12.676;2023-05-07T13:08:48;25.30;96.80
37086;DHT22;23001;45.952;12.676;2023-05-07T13:11:13;25.40;97.10
37086;DHT22;23001;45.952;12.676;2023-05-07T13:13:39;25.50;96.60
37086;DHT22;23001;45.952;12.676;2023-05-07T13:16:27;25.50;97.00
37086;DHT22;23001;45.952;12.676;2023-05-07T13:18:51;25.50;97.30
37086;DHT22;23001;45.952;12.676;2023-05-07T13:21:17;25.50;96.70
37086;DHT22;23001;45.952;12.676;2023-05-07T13:23:43;25.60;96.70
37086;DHT22;23001;45.952;12.676;2023-05-07T13:26:08;25.60;97.40
37086;DHT22;23001;45.952;12.676;2023-05-07T13:28:37;25.50;96.40
37086;DHT22;23001;45.952;12.676;2023-05-07T13:31:03;25.60;97.30
37086;DHT22;23001;45.952;12.676;2023-05-07T13:33:28;25.40;97.40
37086;DHT22;23001;45.952;12.676;2023-05-07T13:39:00;25.50;96.60
37086;DHT22;23001;45.952;12.676;2023-05-07T13:41:26;25.50;97.10
37086;DHT22;23001;45.952;12.676;2023-05-07T13:43:52;25.40;96.30
37086;DHT22;23001;45.952;12.676;2023-05-07T13:46:18;25.30;96.60
37086;DHT22;23001;45.952;12.676;2023-05-07T13:48:44;25.30;96.30
37086;DHT22;23001;45.952;12.676;2023-05-07T13:51:30;25.40;97.40
37086;DHT22;23001;45.952;12.676;2023-05-07T13:54:14;25.60;95.70
37086;DHT22;23001;45.952;12.676;2023-05-07T13:56:41;25.50;95.80
37086;DHT22;23001;45.952;12.676;2023-05-07T13:59:07;25.50;96.10
37086;DHT22;23001;45.952;12.676;2023-05-07T14:01:33;25.60;96.50
37086;DHT22;23001;45.952;12.676;2023-05-07T14:03:59;25.60;96.30
37086;DHT22;23001;45.952;12.676;2023-05-07T14:06:25;25.30;95.70
37086;DHT22;23001;45.952;12.676;2023-05-07T14:08:54;25.20;95.60
37086;DHT22;23001;45.952;12.676;2023-05-07T14:11:25;25.20;96.30
37086;DHT22;23001;45.952;12.676;2023-05-07T14:14:11;25.30;97.10
37086;DHT22;23001;45.952;12.676;2023-05-07T14:17:08;25.40;96.40
37086;DHT22;23001;45.952;12.676;2023-05-07T14:19:33;25.50;95.80
37086;DHT22;23001;45.952;12.676;2023-05-07T14:22:02;25.60;97.00
37086;DHT22;23001;45.952;12.676;2023-05-07T14:24:28;25.70;97.40
37086;DHT22;23001;45.952;12.676;2023-05-07T14:26:54;25.70;96.30
37086;DHT22;23001;45.952;12.676;2023-05-07T14:29:20;25.80;96.50
37086;DHT22;23001;45.952;12.676;2023-05-07T14:31:55;25.80;96.20
37086;DHT22;23001;45.952;12.676;2023-05-07T14:34:20;25.80;96.80
37086;DHT22;23001;45.952;12.676;2023-05-07T14:36:46;26.00;97.30
37086;DHT22;23001;45.952;12.676;2023-05-07T14:39:12;25.90;96.30
37086;DHT22;23001;45.952;12.676;2023-05-07T14:41:40;25.90;95.30
37086;DHT22;23001;45.952;12.676;2023-05-07T14:44:20;25.80;95.40
37086;DHT22;23001;45.952;12.676;2023-05-07T14:46:46;25.90;95.90
37086;DHT22;23001;45.952;12.676;2023-05-07T14:49:11;25.80;97.10
37086;DHT22;23001;45.952;12.676;2023-05-07T14:51:42;25.60;97.10
37086;DHT22;23001;45.952;12.676;2023-05-07T14:54:08;25.60;96.00
37086;DHT22;23001;45.952;12.676;2023-05-07T14:56:37;25.60;96.80
37086;DHT22;23001;45.952;12.676;2023-05-07T14:59:03;25.70;96.10
37086;DHT22;23001;45.952;12.676;2023-05-07T15:04:40;25.60;97.00
37086;DHT22;23001;45.952;12.676;2023-05-07T15:07:11;25.60;96.00
37086;DHT22;23001;45.952;12.676;2023-05-07T15:09:40;25.50;96.70
37086;DHT22;23001;45.952;12.676;2023-05-07T15:15:19;25.40;96.80
37086;DHT22;23001;45.952;12.676;2023-05-07T15:20:55;25.20;97.10
37086;DHT22;23001;45.952;12.676;2023-05-07T15:33:04;25.20;97.60
37086;DHT22;23001;45.952;12.676;2023-05-07T15:48:01;24.10;98.60
37086;DHT22;23001;45.952;12.676;2023-05-07T16:30:16;23.70;98.60
37086;DHT22;23001;45.952;12.676;2023-05-07T17:03:02;22.90;98.30
37086;DHT22;23001;45.952;12.676;2023-05-07T17:05:53;22.90;98.40
37086;DHT22;23001;45.952;12.676;2023-05-07T17:08:19;22.80;98.50
37086;DHT22;23001;45.952;12.676;2023-05-07T17:10:45;22.60;99.10
37086;DHT22;23001;45.952;12.676;2023-05-07T17:13:20;22.50;99.00
37086;DHT22;23001;45.952;12.676;2023-05-07T17:15:45;22.50;99.20
37086;DHT22;23001;45.952;12.676;2023-05-07T17:18:12;22.60;99.10
37086;DHT22;23001;45.952;12.676;2023-05-07T17:20:38;22.60;99.10
37086;DHT22;23001;45.952;12.676;2023-05-07T17:23:12;22.40;99.20
37086;DHT22;23001;45.952;12.676;2023-05-07T17:26:46;22.40;99.30
37086;DHT22;23001;45.952;12.676;2023-05-07T17:29:14;22.30;99.60
37086;DHT22;23001;45.952;12.676;2023-05-07T17:31:46;22.20;99.20
37086;DHT22;23001;45.952;12.676;2023-05-07T17:34:20;22.30;99.60
37086;DHT22;23001;45.952;12.676;2023-05-07T17:43:21;21.90;99.90
37086;DHT22;23001;45.952;12.676;2023-05-07T17:45:58;21.90;99.90
37086;DHT22;23001;45.952;12.676;2023-05-07T17:51:56;21.90;99.90
37086;DHT22;23001;45.952;12.676;2023-05-07T17:54:28;21.90;99.90
37086;DHT22;23001;45.952;12.676;2023-05-07T17:59:59;21.70;99.90
37086;DHT22;23001;45.952;12.676;2023-05-07T18:05:34;21.60;99.90
37086;DHT22;23001;45.952;12.676;2023-05-07T18:17:41;21.50;99.90
37086;DHT22;23001;45.952;12.676;2023-05-07T18:20:15;21.40;99.90
37086;DHT22;23001;45.952;12.676;2023-05-07T18:25:43;21.30;99.90
37086;DHT22;23001;45.952;12.676;2023-05-07T18:31:23;21.20;99.90
37086;DHT22;23001;45.952;12.676;2023-05-07T18:34:09;21.20;99.90
37086;DHT22;23001;45.952;12.676;2023-05-07T18:37:12;21.10;99.90
37086;DHT22;23001;45.952;12.676;2023-05-07T18:39:44;21.10;99.90
37086;DHT22;23001;45.952;12.676;2023-05-07T18:51:47;20.80;99.90
37086;DHT22;23001;45.952;12.676;2023-05-07T20:04:26;20.20;99.90
37086;DHT22;23001;45.952;12.676;2023-05-07T20:07:00;20.10;99.90
37086;DHT22;23001;45.952;12.676;2023-05-07T20:37:07;19.80;99.90
37086;DHT22;23001;45.952;12.676;2023-05-07T20:42:32;19.90;99.90
37086;DHT22;23001;45.952;12.676;2023-05-07T20:55:08;19.70;99.90
37086;DHT22;23001;45.952;12.676;2023-05-07T21:00:59;19.60;99.90
37086;DHT22;23001;45.952;12.676;2023-05-07T21:03:33;19.50;99.90
37086;DHT22;23001;45.952;12.676;2023-05-07T21:39:54;19.30;99.90
37086;DHT22;23001;45.952;12.676;2023-05-07T21:51:20;19.30;99.90
37086;DHT22;23001;45.952;12.676;2023-05-07T22:12:50;19.20;99.90
37086;DHT22;23001;45.952;12.676;2023-05-07T22:15:25;19.10;99.90
37086;DHT22;23001;45.952;12.676;2023-05-07T22:18:07;19.10;99.90
37086;DHT22;23001;45.952;12.676;2023-05-07T22:20:49;19.10;99.90
37086;DHT22;23001;45.952;12.676;2023-05-07T22:26:20;19.00;99.90
37086;DHT22;23001;45.952;12.676;2023-05-07T22:28:49;18.90;99.90
37086;DHT22;23001;45.952;12.676;2023-05-07T22:31:25;18.90;99.90
37086;DHT22;23001;45.952;12.676;2023-05-07T22:33:51;18.80;99.90
37086;DHT22;23001;45.952;12.676;2023-05-07T22:36:17;18.90;99.90
37086;DHT22;23001;45.952;12.676;2023-05-07T22:38:48;18.90;99.90
37086;DHT22;23001;45.952;12.676;2023-05-07T22:41:14;18.90;99.90
37086;DHT22;23001;45.952;12.676;2023-05-07T22:43:43;18.90;99.90
37086;DHT22;23001;45.952;12.676;2023-05-07T22:46:08;18.90;99.90
37086;DHT22;23001;45.952;12.676;2023-05-07T22:48:34;18.90;99.90
37086;DHT22;23001;45.952;12.676;2023-05-07T22:51:06;18.90;99.90
37086;DHT22;23001;45.952;12.676;2023-05-07T22:53:44;18.90;99.90
37086;DHT22;23001;45.952;12.676;2023-05-07T22:56:27;18.90;99.90
37086;DHT22;23001;45.952;12.676;2023-05-07T22:59:15;18.90;99.90
37086;DHT22;23001;45.952;12.676;2023-05-07T23:01:41;18.80;99.90
37086;DHT22;23001;45.952;12.676;2023-05-07T23:48:18;18.70;99.90
